N365AD -KLAX
Flight info
| Callsign | N365AD |
|---|---|
| Flight time | N/A |
| Altitude | VFR |
| Route | |
| Aircraft | C172/L-DOV/C |
Departure
| Time | N/A |
|---|---|
| Airport | - |
Arrival
| Time | 2026-05-04 01:05 |
|---|---|
| Airport | Los Angeles International Airport (KLAX) |
| Time | Latitude | Longitude | Altitude | Speed | Heading |
|---|---|---|---|---|---|
| 2026-05-04 00:46 | 34.20909 | -118.54432 | 1973 ft | 111 kts | 130° |
| 2026-05-04 00:47 | 34.20436 | -118.53687 | 1995 ft | 116 kts | 132° |
| 2026-05-04 00:47 | 34.19949 | -118.52907 | 2000 ft | 113 kts | 133° |
| 2026-05-04 00:47 | 34.19474 | -118.52192 | 1922 ft | 100 kts | 133° |
| 2026-05-04 00:47 | 34.19109 | -118.51546 | 1718 ft | 90 kts | 129° |
| 2026-05-04 00:48 | 34.18804 | -118.50880 | 1636 ft | 93 kts | 117° |
| 2026-05-04 00:48 | 34.18545 | -118.50103 | 1790 ft | 104 kts | 115° |
| 2026-05-04 00:48 | 34.18330 | -118.49241 | 1915 ft | 113 kts | 104° |
| 2026-05-04 00:48 | 34.18218 | -118.48324 | 2041 ft | 108 kts | 125° |
| 2026-05-04 00:49 | 34.17578 | -118.48116 | 2049 ft | 106 kts | 196° |
| 2026-05-04 00:49 | 34.16927 | -118.48322 | 2160 ft | 81 kts | 199° |
| 2026-05-04 00:49 | 34.16390 | -118.48491 | 1922 ft | 76 kts | 196° |
| 2026-05-04 00:49 | 34.15828 | -118.48591 | 1860 ft | 86 kts | 189° |
| 2026-05-04 00:50 | 34.15271 | -118.48687 | 1945 ft | 90 kts | 191° |
| 2026-05-04 00:50 | 34.14648 | -118.48848 | 1911 ft | 90 kts | 194° |
| 2026-05-04 00:50 | 34.14078 | -118.48598 | 1852 ft | 107 kts | 120° |
| 2026-05-04 00:50 | 34.13956 | -118.47672 | 1921 ft | 112 kts | 105° |
| 2026-05-04 00:51 | 34.13869 | -118.46735 | 2017 ft | 120 kts | 97° |
| 2026-05-04 00:51 | 34.13855 | -118.45720 | 2141 ft | 123 kts | 96° |
| 2026-05-04 00:51 | 34.13894 | -118.44684 | 2152 ft | 127 kts | 92° |
| 2026-05-04 00:51 | 34.13768 | -118.43680 | 2290 ft | 116 kts | 139° |
| 2026-05-04 00:52 | 34.13090 | -118.43179 | 2306 ft | 114 kts | 156° |
| 2026-05-04 00:52 | 34.12374 | -118.42676 | 2219 ft | 126 kts | 153° |
| 2026-05-04 00:52 | 34.11668 | -118.42056 | 2144 ft | 128 kts | 150° |
| 2026-05-04 00:52 | 34.10962 | -118.41450 | 2180 ft | 125 kts | 149° |
| 2026-05-04 00:53 | 34.10267 | -118.40845 | 2256 ft | 114 kts | 149° |
| 2026-05-04 00:53 | 34.09623 | -118.40267 | 2303 ft | 116 kts | 146° |
| 2026-05-04 00:53 | 34.09132 | -118.39442 | 2292 ft | 124 kts | 127° |
| 2026-05-04 00:53 | 34.08656 | -118.38625 | 2195 ft | 102 kts | 133° |
| 2026-05-04 00:54 | 34.08266 | -118.37985 | 2144 ft | 94 kts | 135° |
| 2026-05-04 00:54 | 34.07877 | -118.37265 | 2206 ft | 117 kts | 126° |
| 2026-05-04 00:54 | 34.07458 | -118.36440 | 2413 ft | 109 kts | 128° |
| 2026-05-04 00:54 | 34.07026 | -118.35624 | 2402 ft | 119 kts | 127° |
| 2026-05-04 00:55 | 34.06647 | -118.34869 | 2294 ft | 96 kts | 124° |
| 2026-05-04 00:55 | 34.06304 | -118.34163 | 1991 ft | 98 kts | 121° |
| 2026-05-04 00:55 | 34.05940 | -118.33517 | 1748 ft | 92 kts | 143° |
| 2026-05-04 00:55 | 34.05497 | -118.33025 | 1549 ft | 86 kts | 131° |
| 2026-05-04 00:56 | 34.05415 | -118.32291 | 1183 ft | 97 kts | 102° |
| 2026-05-04 00:56 | 34.05279 | -118.31437 | 1201 ft | 103 kts | 102° |
| 2026-05-04 00:56 | 34.05125 | -118.30611 | 1527 ft | 87 kts | 109° |
| 2026-05-04 00:56 | 34.04961 | -118.29905 | 1777 ft | 92 kts | 117° |
| 2026-05-04 00:57 | 34.04694 | -118.29165 | 1995 ft | 102 kts | 120° |
| 2026-05-04 00:57 | 34.04491 | -118.28284 | 2118 ft | 115 kts | 106° |
| 2026-05-04 00:57 | 34.04311 | -118.27399 | 2437 ft | 107 kts | 104° |
| 2026-05-04 00:57 | 34.04381 | -118.26422 | 2506 ft | 126 kts | 78° |
| 2026-05-04 00:58 | 34.04571 | -118.25447 | 2733 ft | 119 kts | 81° |
| 2026-05-04 00:58 | 34.04770 | -118.24428 | 2765 ft | 125 kts | 77° |
| 2026-05-04 00:58 | 34.04972 | -118.23460 | 2855 ft | 123 kts | 92° |
| 2026-05-04 00:58 | 34.04401 | -118.22928 | 2702 ft | 122 kts | 197° |
| 2026-05-04 00:59 | 34.03806 | -118.23582 | 2642 ft | 119 kts | 236° |
| 2026-05-04 00:59 | 34.03406 | -118.24319 | 2468 ft | 95 kts | 235° |
| 2026-05-04 00:59 | 34.03075 | -118.24929 | 2429 ft | 82 kts | 238° |
| 2026-05-04 00:59 | 34.02743 | -118.25587 | 2471 ft | 107 kts | 236° |
| 2026-05-04 01:00 | 34.02301 | -118.26316 | 2425 ft | 106 kts | 234° |
| 2026-05-04 01:00 | 34.01830 | -118.26993 | 2282 ft | 106 kts | 224° |
| 2026-05-04 01:00 | 34.01269 | -118.27537 | 2186 ft | 101 kts | 218° |
| 2026-05-04 01:00 | 34.00711 | -118.28027 | 2137 ft | 99 kts | 216° |
| 2026-05-04 01:01 | 34.00143 | -118.28489 | 2048 ft | 98 kts | 217° |
| 2026-05-04 01:01 | 33.99572 | -118.28975 | 1918 ft | 103 kts | 214° |
| 2026-05-04 01:01 | 33.98980 | -118.29466 | 1972 ft | 106 kts | 214° |
| 2026-05-04 01:01 | 33.98330 | -118.29971 | 1872 ft | 116 kts | 215° |
| 2026-05-04 01:02 | 33.97631 | -118.30477 | 1793 ft | 118 kts | 214° |
| 2026-05-04 01:02 | 33.96925 | -118.30994 | 1751 ft | 119 kts | 214° |
| 2026-05-04 01:02 | 33.96200 | -118.31516 | 1556 ft | 125 kts | 213° |
| 2026-05-04 01:02 | 33.95501 | -118.32085 | 1526 ft | 116 kts | 223° |
| 2026-05-04 01:03 | 33.94936 | -118.32808 | 1347 ft | 121 kts | 232° |
| 2026-05-04 01:03 | 33.94466 | -118.33689 | 1144 ft | 125 kts | 248° |
| 2026-05-04 01:03 | 33.94347 | -118.34504 | 784 ft | 110 kts | 262° |
| 2026-05-04 01:03 | 33.94245 | -118.35434 | 527 ft | 117 kts | 262° |
| 2026-05-04 01:04 | 33.94144 | -118.36405 | 420 ft | 117 kts | 268° |
| 2026-05-04 01:04 | 33.94060 | -118.37289 | 291 ft | 97 kts | 266° |
| 2026-05-04 01:04 | 33.93978 | -118.38080 | 199 ft | 94 kts | 263° |
| 2026-05-04 01:04 | 33.93910 | -118.38755 | 122 ft | 68 kts | 262° |
| 2026-05-04 01:05 | 33.93860 | -118.39220 | 122 ft | 32 kts | 263° |
| 2026-05-04 01:05 | 33.93806 | -118.39375 | 121 ft | 0 kts | 123° |
| 2026-05-04 01:05 | 33.93712 | -118.39369 | 121 ft | 29 kts | 188° |
| 2026-05-04 01:05 | 33.93534 | -118.39391 | 121 ft | 25 kts | 171° |
| 2026-05-04 01:06 | 33.93464 | -118.39334 | 121 ft | 15 kts | 197° |
| 2026-05-04 01:06 | 33.93358 | -118.39330 | 121 ft | 20 kts | 110° |
| 2026-05-04 01:06 | 33.93355 | -118.39297 | 121 ft | 0 kts | 89° |